sensor_id;sensor_type;location;lat;lon;timestamp;pressure;altitude;pressure_sealevel;temperature;humidity
9969;BME280;5025;48.890;9.278;2022-10-26T00:00:25;98791.53;;;13.09;82.54
9969;BME280;5025;48.890;9.278;2022-10-26T00:02:52;98795.66;;;13.12;82.57
9969;BME280;5025;48.890;9.278;2022-10-26T00:05:18;98800.00;;;13.13;82.55
9969;BME280;5025;48.890;9.278;2022-10-26T00:07:43;98798.13;;;13.14;82.66
9969;BME280;5025;48.890;9.278;2022-10-26T00:10:09;98799.75;;;13.15;82.83
9969;BME280;5025;48.890;9.278;2022-10-26T00:12:34;98791.13;;;13.18;82.83
9969;BME280;5025;48.890;9.278;2022-10-26T00:14:59;98790.06;;;13.19;82.69
9969;BME280;5025;48.890;9.278;2022-10-26T00:17:25;98792.53;;;13.20;82.65
9969;BME280;5025;48.890;9.278;2022-10-26T00:19:50;98798.75;;;13.21;82.80
9969;BME280;5025;48.890;9.278;2022-10-26T00:22:15;98799.56;;;13.21;82.82
9969;BME280;5025;48.890;9.278;2022-10-26T00:24:40;98797.47;;;13.23;82.83
9969;BME280;5025;48.890;9.278;2022-10-26T00:27:06;98800.97;;;13.24;82.95
9969;BME280;5025;48.890;9.278;2022-10-26T00:29:31;98797.22;;;13.25;82.96
9969;BME280;5025;48.890;9.278;2022-10-26T00:31:56;98797.22;;;13.25;82.80
9969;BME280;5025;48.890;9.278;2022-10-26T00:34:22;98795.31;;;13.25;82.68
9969;BME280;5025;48.890;9.278;2022-10-26T00:36:47;98788.00;;;13.26;82.99
9969;BME280;5025;48.890;9.278;2022-10-26T00:39:13;98796.13;;;13.26;82.96
9969;BME280;5025;48.890;9.278;2022-10-26T00:47:39;98790.47;;;13.27;82.86
9969;BME280;5025;48.890;9.278;2022-10-26T00:50:14;98797.28;;;13.30;82.59
9969;BME280;5025;48.890;9.278;2022-10-26T00:52:42;98789.72;;;13.32;82.55
9969;BME280;5025;48.890;9.278;2022-10-26T00:55:08;98798.47;;;13.34;82.78
9969;BME280;5025;48.890;9.278;2022-10-26T00:57:34;98803.06;;;13.34;82.34
9969;BME280;5025;48.890;9.278;2022-10-26T01:00:01;98801.19;;;13.34;82.51
9969;BME280;5025;48.890;9.278;2022-10-26T01:02:28;98800.56;;;13.32;82.53
9969;BME280;5025;48.890;9.278;2022-10-26T01:04:53;98792.44;;;13.32;82.30
9969;BME280;5025;48.890;9.278;2022-10-26T01:07:20;98802.25;;;13.33;82.30
9969;BME280;5025;48.890;9.278;2022-10-26T01:09:46;98801.19;;;13.34;82.22
9969;BME280;5025;48.890;9.278;2022-10-26T01:12:11;98807.69;;;13.33;82.12
9969;BME280;5025;48.890;9.278;2022-10-26T01:14:37;98806.84;;;13.33;82.31
9969;BME280;5025;48.890;9.278;2022-10-26T01:18:07;98800.56;;;13.32;82.24
9969;BME280;5025;48.890;9.278;2022-10-26T01:20:39;98798.69;;;13.33;82.14
9969;BME280;5025;48.890;9.278;2022-10-26T01:31:50;98789.72;;;13.32;82.40
9969;BME280;5025;48.890;9.278;2022-10-26T01:34:44;98779.72;;;13.33;82.05
9969;BME280;5025;48.890;9.278;2022-10-26T01:37:11;98774.28;;;13.33;82.12
9969;BME280;5025;48.890;9.278;2022-10-26T01:39:45;98774.06;;;13.34;82.44
9969;BME280;5025;48.890;9.278;2022-10-26T01:42:13;98771.38;;;13.34;82.43
9969;BME280;5025;48.890;9.278;2022-10-26T01:44:45;98758.84;;;13.33;82.54
9969;BME280;5025;48.890;9.278;2022-10-26T01:47:13;98757.56;;;13.36;82.62
9969;BME280;5025;48.890;9.278;2022-10-26T01:49:49;98760.00;;;13.37;82.62
9969;BME280;5025;48.890;9.278;2022-10-26T01:52:18;98763.78;;;13.36;82.68
9969;BME280;5025;48.890;9.278;2022-10-26T01:54:43;98760.50;;;13.34;82.71
9969;BME280;5025;48.890;9.278;2022-10-26T01:57:11;98751.75;;;13.32;82.58
9969;BME280;5025;48.890;9.278;2022-10-26T02:02:41;98745.19;;;13.28;82.88
9969;BME280;5025;48.890;9.278;2022-10-26T02:05:32;98747.06;;;13.27;82.98
9969;BME280;5025;48.890;9.278;2022-10-26T02:11:11;98751.69;;;13.27;83.07
9969;BME280;5025;48.890;9.278;2022-10-26T02:13:58;98737.56;;;13.25;83.29
9969;BME280;5025;48.890;9.278;2022-10-26T02:19:32;98736.97;;;13.23;83.27
9969;BME280;5025;48.890;9.278;2022-10-26T02:22:26;98722.84;;;13.21;83.44
9969;BME280;5025;48.890;9.278;2022-10-26T02:24:51;98724.97;;;13.19;83.39
9969;BME280;5025;48.890;9.278;2022-10-26T02:27:30;98732.03;;;13.20;83.55
9969;BME280;5025;48.890;9.278;2022-10-26T02:29:58;98732.56;;;13.17;83.72
9969;BME280;5025;48.890;9.278;2022-10-26T02:32:27;98738.13;;;13.10;83.62
9969;BME280;5025;48.890;9.278;2022-10-26T02:34:56;98739.34;;;13.02;83.91
9969;BME280;5025;48.890;9.278;2022-10-26T02:37:24;98743.88;;;12.97;84.15
9969;BME280;5025;48.890;9.278;2022-10-26T02:39:51;98752.25;;;12.95;84.23
9969;BME280;5025;48.890;9.278;2022-10-26T02:42:18;98759.56;;;12.95;84.46
9969;BME280;5025;48.890;9.278;2022-10-26T02:44:56;98766.88;;;12.94;84.49
9969;BME280;5025;48.890;9.278;2022-10-26T02:47:24;98772.28;;;12.94;84.63
9969;BME280;5025;48.890;9.278;2022-10-26T02:49:51;98783.13;;;12.94;84.62
9969;BME280;5025;48.890;9.278;2022-10-26T02:52:23;98788.00;;;12.92;84.58
9969;BME280;5025;48.890;9.278;2022-10-26T02:54:56;98775.25;;;12.93;84.78
9969;BME280;5025;48.890;9.278;2022-10-26T02:57:33;98778.78;;;12.93;85.00
9969;BME280;5025;48.890;9.278;2022-10-26T03:00:04;98773.94;;;12.95;84.76
9969;BME280;5025;48.890;9.278;2022-10-26T03:02:30;98765.56;;;12.97;84.83
9969;BME280;5025;48.890;9.278;2022-10-26T03:04:56;98761.53;;;12.99;84.62
9969;BME280;5025;48.890;9.278;2022-10-26T03:07:30;98769.16;;;13.02;84.63
9969;BME280;5025;48.890;9.278;2022-10-26T03:09:55;98766.72;;;13.01;84.80
9969;BME280;5025;48.890;9.278;2022-10-26T03:12:21;98770.00;;;13.03;84.97
9969;BME280;5025;48.890;9.278;2022-10-26T03:14:46;98782.47;;;13.04;84.78
9969;BME280;5025;48.890;9.278;2022-10-26T03:17:11;98787.59;;;13.00;84.78
9969;BME280;5025;48.890;9.278;2022-10-26T03:19:36;98787.00;;;12.98;84.74
9969;BME280;5025;48.890;9.278;2022-10-26T03:22:02;98792.44;;;12.98;85.01
9969;BME280;5025;48.890;9.278;2022-10-26T03:24:27;98798.09;;;12.97;85.10
9969;BME280;5025;48.890;9.278;2022-10-26T03:26:52;98804.34;;;12.97;85.12
9969;BME280;5025;48.890;9.278;2022-10-26T03:29:18;98806.00;;;12.98;85.09
9969;BME280;5025;48.890;9.278;2022-10-26T03:31:43;98791.84;;;12.96;85.14
9969;BME280;5025;48.890;9.278;2022-10-26T03:34:11;98791.59;;;12.98;85.22
9969;BME280;5025;48.890;9.278;2022-10-26T03:36:36;98804.66;;;13.01;85.05
9969;BME280;5025;48.890;9.278;2022-10-26T03:39:01;98809.84;;;13.02;85.39
9969;BME280;5025;48.890;9.278;2022-10-26T03:41:27;98820.91;;;13.01;85.23
9969;BME280;5025;48.890;9.278;2022-10-26T03:43:52;98814.94;;;12.99;85.38
9969;BME280;5025;48.890;9.278;2022-10-26T03:46:17;98812.22;;;12.99;85.37
9969;BME280;5025;48.890;9.278;2022-10-26T03:48:43;98814.69;;;13.00;85.52
9969;BME280;5025;48.890;9.278;2022-10-26T03:51:08;98819.88;;;13.02;85.57
9969;BME280;5025;48.890;9.278;2022-10-26T03:53:33;98815.75;;;12.99;85.46
9969;BME280;5025;48.890;9.278;2022-10-26T03:55:59;98818.44;;;12.99;85.74
9969;BME280;5025;48.890;9.278;2022-10-26T03:58:24;98809.75;;;12.97;85.82
9969;BME280;5025;48.890;9.278;2022-10-26T04:00:49;98813.03;;;12.99;85.92
9969;BME280;5025;48.890;9.278;2022-10-26T04:03:15;98811.72;;;13.02;85.93
9969;BME280;5025;48.890;9.278;2022-10-26T04:05:40;98810.44;;;13.04;85.78
9969;BME280;5025;48.890;9.278;2022-10-26T04:08:07;98809.34;;;13.05;85.74
9969;BME280;5025;48.890;9.278;2022-10-26T04:10:32;98801.22;;;13.05;85.90
9969;BME280;5025;48.890;9.278;2022-10-26T04:12:57;98802.88;;;13.06;86.00
9969;BME280;5025;48.890;9.278;2022-10-26T04:15:24;98796.16;;;13.09;86.05
9969;BME280;5025;48.890;9.278;2022-10-26T04:17:57;98792.09;;;13.12;85.92
9969;BME280;5025;48.890;9.278;2022-10-26T04:20:23;98784.56;;;13.14;85.98
9969;BME280;5025;48.890;9.278;2022-10-26T04:22:59;98784.06;;;13.17;85.93
9969;BME280;5025;48.890;9.278;2022-10-26T04:25:25;98779.22;;;13.19;85.83
9969;BME280;5025;48.890;9.278;2022-10-26T04:27:50;98769.50;;;13.23;85.94
9969;BME280;5025;48.890;9.278;2022-10-26T04:30:16;98767.38;;;13.25;85.84
9969;BME280;5025;48.890;9.278;2022-10-26T04:32:42;98764.19;;;13.28;85.63
9969;BME280;5025;48.890;9.278;2022-10-26T04:35:07;98773.38;;;13.27;85.71
9969;BME280;5025;48.890;9.278;2022-10-26T04:37:33;98775.34;;;13.15;85.79
9969;BME280;5025;48.890;9.278;2022-10-26T04:39:58;98764.75;;;13.13;85.92
9969;BME280;5025;48.890;9.278;2022-10-26T04:42:23;98768.28;;;13.14;85.88
9969;BME280;5025;48.890;9.278;2022-10-26T04:44:51;98775.94;;;13.17;85.99
9969;BME280;5025;48.890;9.278;2022-10-26T04:47:16;98789.22;;;13.18;85.80
9969;BME280;5025;48.890;9.278;2022-10-26T04:49:42;98790.31;;;13.17;85.73
9969;BME280;5025;48.890;9.278;2022-10-26T04:52:07;98773.38;;;13.10;85.96
9969;BME280;5025;48.890;9.278;2022-10-26T04:54:32;98776.91;;;13.11;86.09
9969;BME280;5025;48.890;9.278;2022-10-26T04:56:58;98788.81;;;13.09;86.08
9969;BME280;5025;48.890;9.278;2022-10-26T04:59:23;98786.03;;;13.04;86.35
9969;BME280;5025;48.890;9.278;2022-10-26T05:01:48;98785.69;;;13.01;86.34
9969;BME280;5025;48.890;9.278;2022-10-26T05:04:14;98770.81;;;13.03;86.51
9969;BME280;5025;48.890;9.278;2022-10-26T05:06:39;98774.09;;;13.05;86.55
9969;BME280;5025;48.890;9.278;2022-10-26T05:09:04;98767.94;;;13.10;86.44
9969;BME280;5025;48.890;9.278;2022-10-26T05:11:30;98775.09;;;13.16;86.47
9969;BME280;5025;48.890;9.278;2022-10-26T05:13:55;98765.41;;;13.20;86.48
9969;BME280;5025;48.890;9.278;2022-10-26T05:16:20;98767.38;;;13.25;86.37
9969;BME280;5025;48.890;9.278;2022-10-26T05:18:49;98781.00;;;13.30;86.19
9969;BME280;5025;48.890;9.278;2022-10-26T05:21:15;98789.25;;;13.35;86.15
9969;BME280;5025;48.890;9.278;2022-10-26T05:23:53;98781.47;;;13.39;86.01
9969;BME280;5025;48.890;9.278;2022-10-26T05:26:20;98782.03;;;13.41;86.13
9969;BME280;5025;48.890;9.278;2022-10-26T05:28:49;98786.16;;;13.43;86.07
9969;BME280;5025;48.890;9.278;2022-10-26T05:31:15;98787.53;;;13.46;85.95
9969;BME280;5025;48.890;9.278;2022-10-26T05:33:41;98792.72;;;13.48;86.10
9969;BME280;5025;48.890;9.278;2022-10-26T05:36:06;98790.84;;;13.48;85.99
9969;BME280;5025;48.890;9.278;2022-10-26T05:38:32;98799.28;;;13.52;85.90
9969;BME280;5025;48.890;9.278;2022-10-26T05:40:57;98809.66;;;13.55;85.83
9969;BME280;5025;48.890;9.278;2022-10-26T05:43:24;98802.06;;;13.57;85.79
9969;BME280;5025;48.890;9.278;2022-10-26T05:45:50;98807.25;;;13.58;85.67
9969;BME280;5025;48.890;9.278;2022-10-26T05:48:15;98809.97;;;13.58;85.68
9969;BME280;5025;48.890;9.278;2022-10-26T05:50:41;98815.41;;;13.58;85.66
9969;BME280;5025;48.890;9.278;2022-10-26T05:53:06;98821.16;;;13.62;85.63
9969;BME280;5025;48.890;9.278;2022-10-26T05:55:32;98827.41;;;13.62;85.61
9969;BME280;5025;48.890;9.278;2022-10-26T05:57:58;98819.81;;;13.65;85.50
9969;BME280;5025;48.890;9.278;2022-10-26T06:00:26;98823.38;;;13.65;85.53
9969;BME280;5025;48.890;9.278;2022-10-26T06:05:36;98832.34;;;13.66;85.53
9969;BME280;5025;48.890;9.278;2022-10-26T06:08:04;98835.28;;;13.64;85.48
9969;BME280;5025;48.890;9.278;2022-10-26T06:10:32;98833.41;;;13.65;85.59
9969;BME280;5025;48.890;9.278;2022-10-26T06:12:58;98830.44;;;13.66;85.44
9969;BME280;5025;48.890;9.278;2022-10-26T06:15:23;98841.03;;;13.68;85.58
9969;BME280;5025;48.890;9.278;2022-10-26T06:18:01;98856.25;;;13.69;85.39
9969;BME280;5025;48.890;9.278;2022-10-26T06:23:27;98865.56;;;13.73;85.48
9969;BME280;5025;48.890;9.278;2022-10-26T06:26:05;98875.34;;;13.74;85.33
9969;BME280;5025;48.890;9.278;2022-10-26T06:28:52;98875.94;;;13.76;85.40
9969;BME280;5025;48.890;9.278;2022-10-26T06:31:19;98883.81;;;13.77;85.33
9969;BME280;5025;48.890;9.278;2022-10-26T06:33:45;98889.00;;;13.79;85.17
9969;BME280;5025;48.890;9.278;2022-10-26T06:36:22;98885.44;;;13.78;85.13
9969;BME280;5025;48.890;9.278;2022-10-26T06:38:49;98890.06;;;13.78;85.24
9969;BME280;5025;48.890;9.278;2022-10-26T06:41:17;98894.69;;;13.77;85.26
9969;BME280;5025;48.890;9.278;2022-10-26T06:43:44;98891.97;;;13.77;85.32
9969;BME280;5025;48.890;9.278;2022-10-26T06:51:42;98896.91;;;13.80;85.41
9969;BME280;5025;48.890;9.278;2022-10-26T06:54:16;98907.28;;;13.84;85.49
9969;BME280;5025;48.890;9.278;2022-10-26T06:56:44;98907.84;;;13.86;85.38
9969;BME280;5025;48.890;9.278;2022-10-26T06:59:52;98907.59;;;13.87;85.43
9969;BME280;5025;48.890;9.278;2022-10-26T07:02:19;98910.06;;;13.89;85.31
9969;BME280;5025;48.890;9.278;2022-10-26T07:04:45;98911.72;;;13.90;85.35
9969;BME280;5025;48.890;9.278;2022-10-26T07:07:16;98918.50;;;13.92;85.22
9969;BME280;5025;48.890;9.278;2022-10-26T07:09:42;98920.16;;;13.93;85.39
9969;BME280;5025;48.890;9.278;2022-10-26T07:12:07;98924.28;;;13.96;85.28
9969;BME280;5025;48.890;9.278;2022-10-26T07:14:33;98925.91;;;13.97;85.28
9969;BME280;5025;48.890;9.278;2022-10-26T07:16:58;98919.44;;;13.98;85.25
9969;BME280;5025;48.890;9.278;2022-10-26T07:19:23;98922.72;;;14.00;85.17
9969;BME280;5025;48.890;9.278;2022-10-26T07:21:49;98934.16;;;14.02;85.05
9969;BME280;5025;48.890;9.278;2022-10-26T07:24:14;98931.94;;;13.99;85.30
9969;BME280;5025;48.890;9.278;2022-10-26T07:26:39;98927.56;;;13.98;85.20
9969;BME280;5025;48.890;9.278;2022-10-26T07:29:05;98938.44;;;13.98;84.95
9969;BME280;5025;48.890;9.278;2022-10-26T07:31:30;98930.03;;;13.99;85.38
9969;BME280;5025;48.890;9.278;2022-10-26T07:33:56;98942.81;;;13.99;85.52
9969;BME280;5025;48.890;9.278;2022-10-26T07:36:21;98943.38;;;14.01;85.56
9969;BME280;5025;48.890;9.278;2022-10-26T07:38:50;98942.88;;;14.04;85.46
9969;BME280;5025;48.890;9.278;2022-10-26T07:41:16;98945.09;;;14.07;85.50
9969;BME280;5025;48.890;9.278;2022-10-26T07:43:41;98938.13;;;14.11;85.36
9969;BME280;5025;48.890;9.278;2022-10-26T07:46:09;98946.81;;;14.13;85.39
9969;BME280;5025;48.890;9.278;2022-10-26T07:48:34;98949.28;;;14.15;85.29
9969;BME280;5025;48.890;9.278;2022-10-26T07:51:00;98954.72;;;14.15;85.28
9969;BME280;5025;48.890;9.278;2022-10-26T07:53:26;98958.84;;;14.18;85.34
9969;BME280;5025;48.890;9.278;2022-10-26T07:55:53;98968.13;;;14.22;85.27
9969;BME280;5025;48.890;9.278;2022-10-26T07:58:19;98957.59;;;14.25;85.20
9969;BME280;5025;48.890;9.278;2022-10-26T08:00:48;98966.56;;;14.26;85.26
9969;BME280;5025;48.890;9.278;2022-10-26T08:03:13;98961.69;;;14.28;85.21
9969;BME280;5025;48.890;9.278;2022-10-26T08:05:39;98968.84;;;14.34;85.37
9969;BME280;5025;48.890;9.278;2022-10-26T08:08:04;98960.56;;;14.41;85.15
9969;BME280;5025;48.890;9.278;2022-10-26T08:10:29;98959.47;;;14.42;85.07
9969;BME280;5025;48.890;9.278;2022-10-26T08:12:55;98953.22;;;14.41;85.12
9969;BME280;5025;48.890;9.278;2022-10-26T08:15:20;98949.75;;;14.46;85.12
9969;BME280;5025;48.890;9.278;2022-10-26T08:17:45;98949.50;;;14.47;84.99
9969;BME280;5025;48.890;9.278;2022-10-26T08:20:11;98954.44;;;14.50;85.02
9969;BME280;5025;48.890;9.278;2022-10-26T08:22:36;98956.06;;;14.51;85.02
9969;BME280;5025;48.890;9.278;2022-10-26T08:25:01;98955.00;;;14.52;85.08
9969;BME280;5025;48.890;9.278;2022-10-26T08:27:27;98954.50;;;14.56;84.87
9969;BME280;5025;48.890;9.278;2022-10-26T08:29:52;98955.66;;;14.60;84.93
9969;BME280;5025;48.890;9.278;2022-10-26T08:32:17;98962.22;;;14.64;84.87
9969;BME280;5025;48.890;9.278;2022-10-26T08:34:43;98961.72;;;14.67;84.72
9969;BME280;5025;48.890;9.278;2022-10-26T08:37:08;98954.72;;;14.71;84.55
9969;BME280;5025;48.890;9.278;2022-10-26T08:39:33;98953.41;;;14.74;84.58
9969;BME280;5025;48.890;9.278;2022-10-26T08:42:32;98954.28;;;14.79;84.55
9969;BME280;5025;48.890;9.278;2022-10-26T08:45:02;98963.84;;;14.82;84.37
9969;BME280;5025;48.890;9.278;2022-10-26T08:47:39;98958.72;;;14.85;84.37
9969;BME280;5025;48.890;9.278;2022-10-26T08:50:27;98969.69;;;14.91;84.25
9969;BME280;5025;48.890;9.278;2022-10-26T08:55:52;98974.66;;;14.99;84.17
9969;BME280;5025;48.890;9.278;2022-10-26T08:58:21;98974.16;;;15.02;84.20
9969;BME280;5025;48.890;9.278;2022-10-26T09:00:50;98982.88;;;15.04;84.18
9969;BME280;5025;48.890;9.278;2022-10-26T09:03:17;98987.25;;;15.05;84.15
9969;BME280;5025;48.890;9.278;2022-10-26T09:05:45;98990.53;;;15.07;84.27
9969;BME280;5025;48.890;9.278;2022-10-26T09:10:55;98996.06;;;15.12;84.48
9969;BME280;5025;48.890;9.278;2022-10-26T09:17:06;99000.78;;;15.22;84.47
9969;BME280;5025;48.890;9.278;2022-10-26T09:22:32;99014.25;;;15.34;84.41
9969;BME280;5025;48.890;9.278;2022-10-26T09:25:26;99015.97;;;15.40;84.44
9969;BME280;5025;48.890;9.278;2022-10-26T09:27:56;99021.75;;;15.49;84.41
9969;BME280;5025;48.890;9.278;2022-10-26T09:30:23;99023.22;;;15.56;84.26
9969;BME280;5025;48.890;9.278;2022-10-26T09:32:51;99024.66;;;15.64;84.16
9969;BME280;5025;48.890;9.278;2022-10-26T09:35:22;99024.22;;;15.72;84.10
9969;BME280;5025;48.890;9.278;2022-10-26T09:37:51;99028.41;;;15.80;84.04
9969;BME280;5025;48.890;9.278;2022-10-26T09:42:57;99038.91;;;15.99;83.45
9969;BME280;5025;48.890;9.278;2022-10-26T09:45:36;99046.66;;;16.12;83.46
9969;BME280;5025;48.890;9.278;2022-10-26T09:48:11;99043.47;;;16.20;83.24
9969;BME280;5025;48.890;9.278;2022-10-26T09:50:44;99052.81;;;16.29;82.99
9969;BME280;5025;48.890;9.278;2022-10-26T09:53:11;99052.34;;;16.38;83.26
9969;BME280;5025;48.890;9.278;2022-10-26T09:55:40;99045.34;;;16.52;82.70
9969;BME280;5025;48.890;9.278;2022-10-26T09:58:12;99051.72;;;16.63;82.64
9969;BME280;5025;48.890;9.278;2022-10-26T10:00:40;99044.69;;;16.77;82.23
9969;BME280;5025;48.890;9.278;2022-10-26T10:03:18;99052.22;;;16.97;81.80
9969;BME280;5025;48.890;9.278;2022-10-26T10:05:44;99046.84;;;17.18;81.47
9969;BME280;5025;48.890;9.278;2022-10-26T10:10:52;99039.63;;;17.49;79.93
9969;BME280;5025;48.890;9.278;2022-10-26T10:13:23;99041.00;;;17.52;79.77
9969;BME280;5025;48.890;9.278;2022-10-26T10:18:26;99042.09;;;17.51;79.71
9969;BME280;5025;48.890;9.278;2022-10-26T10:20:54;99043.97;;;17.50;79.36
9969;BME280;5025;48.890;9.278;2022-10-26T10:23:35;99052.44;;;17.49;79.12
9969;BME280;5025;48.890;9.278;2022-10-26T10:26:07;99048.63;;;17.50;79.00
9969;BME280;5025;48.890;9.278;2022-10-26T10:28:35;99053.28;;;17.49;78.97
9969;BME280;5025;48.890;9.278;2022-10-26T10:31:06;99051.63;;;17.53;78.80
9969;BME280;5025;48.890;9.278;2022-10-26T10:33:42;99056.84;;;17.55;78.50
9969;BME280;5025;48.890;9.278;2022-10-26T10:36:12;99060.13;;;17.57;78.42
9969;BME280;5025;48.890;9.278;2022-10-26T10:38:41;99068.59;;;17.61;78.42
9969;BME280;5025;48.890;9.278;2022-10-26T10:41:15;99071.63;;;17.64;77.98
9969;BME280;5025;48.890;9.278;2022-10-26T10:43:49;99067.00;;;17.70;77.88
9969;BME280;5025;48.890;9.278;2022-10-26T10:46:18;99073.31;;;17.81;77.58
9969;BME280;5025;48.890;9.278;2022-10-26T10:48:52;99071.13;;;17.83;77.37
9969;BME280;5025;48.890;9.278;2022-10-26T10:51:20;99081.56;;;17.91;77.30
9969;BME280;5025;48.890;9.278;2022-10-26T10:53:52;99085.66;;;17.94;76.85
9969;BME280;5025;48.890;9.278;2022-10-26T11:07:08;99071.50;;;18.69;74.86
9969;BME280;5025;48.890;9.278;2022-10-26T11:09:36;99077.25;;;18.88;74.48
9969;BME280;5025;48.890;9.278;2022-10-26T11:12:24;99079.13;;;19.03;73.47
9969;BME280;5025;48.890;9.278;2022-10-26T11:14:57;99083.75;;;19.12;72.77
9969;BME280;5025;48.890;9.278;2022-10-26T11:17:44;99085.94;;;19.15;72.60
9969;BME280;5025;48.890;9.278;2022-10-26T11:20:18;99082.41;;;19.15;72.16
9969;BME280;5025;48.890;9.278;2022-10-26T11:23:09;99074.97;;;19.21;71.75
9969;BME280;5025;48.890;9.278;2022-10-26T11:25:56;99083.69;;;19.33;71.39
9969;BME280;5025;48.890;9.278;2022-10-26T11:28:43;99089.13;;;19.43;71.31
9969;BME280;5025;48.890;9.278;2022-10-26T11:31:15;99080.91;;;19.53;70.80
9969;BME280;5025;48.890;9.278;2022-10-26T11:33:58;99078.38;;;19.62;70.13
9969;BME280;5025;48.890;9.278;2022-10-26T11:36:27;99078.59;;;19.71;69.69
9969;BME280;5025;48.890;9.278;2022-10-26T11:39:00;99079.69;;;19.75;69.74
9969;BME280;5025;48.890;9.278;2022-10-26T11:41:40;99078.09;;;19.69;68.72
9969;BME280;5025;48.890;9.278;2022-10-26T11:44:24;99083.28;;;19.70;68.78
9969;BME280;5025;48.890;9.278;2022-10-26T11:47:02;99088.19;;;19.74;68.33
9969;BME280;5025;48.890;9.278;2022-10-26T11:49:38;99086.88;;;19.61;66.92
9969;BME280;5025;48.890;9.278;2022-10-26T11:54:58;99092.34;;;19.61;66.50
9969;BME280;5025;48.890;9.278;2022-10-26T11:57:31;99092.31;;;19.71;66.43
9969;BME280;5025;48.890;9.278;2022-10-26T12:00:15;99096.94;;;19.81;66.64
9969;BME280;5025;48.890;9.278;2022-10-26T12:02:45;99101.63;;;19.75;65.77
9969;BME280;5025;48.890;9.278;2022-10-26T12:07:51;99105.41;;;19.90;65.78
9969;BME280;5025;48.890;9.278;2022-10-26T12:10:32;99104.75;;;20.08;65.48
9969;BME280;5025;48.890;9.278;2022-10-26T12:18:49;99115.16;;;20.06;61.24
9969;BME280;5025;48.890;9.278;2022-10-26T12:21:16;99106.41;;;20.04;60.86
9969;BME280;5025;48.890;9.278;2022-10-26T12:24:00;99110.78;;;20.05;60.78
9969;BME280;5025;48.890;9.278;2022-10-26T12:34:00;99108.63;;;20.02;58.61
9969;BME280;5025;48.890;9.278;2022-10-26T12:39:32;99118.72;;;20.51;58.25
9969;BME280;5025;48.890;9.278;2022-10-26T12:47:00;99116.00;;;20.46;57.17
9969;BME280;5025;48.890;9.278;2022-10-26T12:52:56;99127.63;;;20.33;57.69
9969;BME280;5025;48.890;9.278;2022-10-26T12:58:07;99130.84;;;20.40;58.03
9969;BME280;5025;48.890;9.278;2022-10-26T13:00:49;99130.53;;;20.47;58.48
9969;BME280;5025;48.890;9.278;2022-10-26T13:08:14;99135.91;;;20.62;58.42
9969;BME280;5025;48.890;9.278;2022-10-26T13:11:12;99144.94;;;20.68;58.79
9969;BME280;5025;48.890;9.278;2022-10-26T13:13:32;99134.13;;;20.82;58.85
9969;BME280;5025;48.890;9.278;2022-10-26T13:16:00;99140.25;;;21.03;58.78
9969;BME280;5025;48.890;9.278;2022-10-26T13:18:26;99142.88;;;21.13;58.69
9969;BME280;5025;48.890;9.278;2022-10-26T13:23:36;99147.91;;;21.59;57.51
9969;BME280;5025;48.890;9.278;2022-10-26T13:28:43;99137.53;;;22.18;56.45
9969;BME280;5025;48.890;9.278;2022-10-26T13:36:42;99152.78;;;23.01;55.49
9969;BME280;5025;48.890;9.278;2022-10-26T13:39:17;99144.94;;;23.55;54.89
9969;BME280;5025;48.890;9.278;2022-10-26T13:41:46;99153.72;;;23.85;53.01
9969;BME280;5025;48.890;9.278;2022-10-26T13:44:20;99143.97;;;24.01;51.90
9969;BME280;5025;48.890;9.278;2022-10-26T13:46:51;99145.44;;;24.35;51.78
9969;BME280;5025;48.890;9.278;2022-10-26T13:49:26;99145.28;;;24.77;51.35
9969;BME280;5025;48.890;9.278;2022-10-26T13:51:53;99156.28;;;24.91;50.71
9969;BME280;5025;48.890;9.278;2022-10-26T13:54:24;99159.25;;;24.72;50.67
9969;BME280;5025;48.890;9.278;2022-10-26T13:57:14;99155.03;;;24.38;51.32
9969;BME280;5025;48.890;9.278;2022-10-26T13:59:43;99160.19;;;24.16;51.37
9969;BME280;5025;48.890;9.278;2022-10-26T14:02:23;99162.75;;;24.27;51.69
9969;BME280;5025;48.890;9.278;2022-10-26T14:04:58;99158.03;;;24.64;51.32
9969;BME280;5025;48.890;9.278;2022-10-26T14:07:36;99168.03;;;24.96;50.72
9969;BME280;5025;48.890;9.278;2022-10-26T14:10:04;99161.91;;;25.31;49.67
9969;BME280;5025;48.890;9.278;2022-10-26T14:12:30;99165.59;;;25.57;48.89
9969;BME280;5025;48.890;9.278;2022-10-26T14:15:07;99161.44;;;25.77;48.63
9969;BME280;5025;48.890;9.278;2022-10-26T14:17:33;99163.81;;;26.02;48.01
9969;BME280;5025;48.890;9.278;2022-10-26T14:19:59;99165.00;;;26.18;47.74
9969;BME280;5025;48.890;9.278;2022-10-26T14:22:26;99176.56;;;26.29;47.65
9969;BME280;5025;48.890;9.278;2022-10-26T14:24:54;99178.19;;;26.30;47.08
9969;BME280;5025;48.890;9.278;2022-10-26T14:27:26;99178.75;;;25.92;47.21
9969;BME280;5025;48.890;9.278;2022-10-26T14:29:53;99188.19;;;25.28;47.83
9969;BME280;5025;48.890;9.278;2022-10-26T14:32:29;99190.50;;;24.44;47.55
9969;BME280;5025;48.890;9.278;2022-10-26T14:34:58;99182.50;;;24.06;48.59
9969;BME280;5025;48.890;9.278;2022-10-26T14:37:39;99178.44;;;23.90;48.83
9969;BME280;5025;48.890;9.278;2022-10-26T14:40:19;99183.31;;;23.65;48.94
9969;BME280;5025;48.890;9.278;2022-10-26T14:42:48;99192.28;;;23.43;49.46
9969;BME280;5025;48.890;9.278;2022-10-26T14:47:53;99191.38;;;23.75;49.16
9969;BME280;5025;48.890;9.278;2022-10-26T14:50:21;99191.69;;;24.15;48.56
9969;BME280;5025;48.890;9.278;2022-10-26T14:52:53;99193.25;;;24.44;47.76
9969;BME280;5025;48.890;9.278;2022-10-26T14:55:19;99193.28;;;24.30;47.67
9969;BME280;5025;48.890;9.278;2022-10-26T14:57:47;99200.63;;;24.35;47.70
9969;BME280;5025;48.890;9.278;2022-10-26T15:00:19;99203.25;;;24.54;47.57
9969;BME280;5025;48.890;9.278;2022-10-26T15:02:47;99196.66;;;24.78;46.90
9969;BME280;5025;48.890;9.278;2022-10-26T15:05:30;99206.38;;;24.98;46.73
9969;BME280;5025;48.890;9.278;2022-10-26T15:07:58;99204.50;;;25.07;46.77
9969;BME280;5025;48.890;9.278;2022-10-26T15:13:19;99205.88;;;25.18;45.94
9969;BME280;5025;48.890;9.278;2022-10-26T15:15:47;99214.31;;;25.13;46.21
9969;BME280;5025;48.890;9.278;2022-10-26T15:18:20;99212.84;;;25.16;45.78
9969;BME280;5025;48.890;9.278;2022-10-26T15:20:48;99224.03;;;25.11;45.99
9969;BME280;5025;48.890;9.278;2022-10-26T15:23:14;99219.09;;;24.99;46.04
9969;BME280;5025;48.890;9.278;2022-10-26T15:26:00;99212.44;;;24.77;46.09
9969;BME280;5025;48.890;9.278;2022-10-26T15:31:27;99217.81;;;24.32;46.91
9969;BME280;5025;48.890;9.278;2022-10-26T15:36:22;99233.78;;;24.07;47.77
9969;BME280;5025;48.890;9.278;2022-10-26T15:38:47;99232.69;;;23.94;48.11
9969;BME280;5025;48.890;9.278;2022-10-26T15:43:48;99236.41;;;23.57;48.96